createdAt,value
2023-05-01T00:01:42.279Z,56.62
2023-05-01T00:05:24.965Z,56.86
2023-05-01T00:09:09.601Z,56.14
2023-05-01T00:12:52.354Z,55.94
2023-05-01T00:16:36.112Z,56.12
2023-05-01T00:20:19.213Z,56.17
2023-05-01T00:24:01.946Z,56.58
2023-05-01T00:27:46.050Z,56.86
2023-05-01T00:31:28.912Z,56.61
2023-05-01T00:35:12.204Z,56.87
2023-05-01T00:38:54.968Z,56.91
2023-05-01T00:42:39.410Z,57.13
2023-05-01T00:46:24.050Z,57.12
2023-05-01T00:50:08.111Z,57.35
2023-05-01T00:53:50.788Z,57.10
2023-05-01T00:57:33.977Z,57.64
2023-05-01T01:01:17.368Z,57.76
2023-05-01T01:05:01.521Z,57.89
2023-05-01T01:08:48.671Z,58.09
2023-05-01T01:12:33.516Z,58.56
2023-05-01T01:16:22.319Z,58.79
2023-05-01T01:20:34.136Z,59.02
2023-05-01T01:24:42.779Z,59.63
2023-05-01T01:28:40.703Z,59.44
2023-05-01T01:32:37.742Z,59.78
2023-05-01T01:36:25.501Z,59.38
2023-05-01T01:40:11.117Z,59.82
2023-05-01T01:44:01.540Z,60.05
2023-05-01T01:47:45.528Z,60.07
2023-05-01T01:51:30.444Z,60.63
2023-05-01T01:55:14.385Z,61.09
2023-05-01T01:58:57.192Z,61.70
2023-05-01T02:02:41.044Z,62.14
2023-05-01T02:06:24.562Z,62.15
2023-05-01T02:10:10.792Z,61.99
2023-05-01T02:13:55.576Z,62.17
2023-05-01T02:17:39.448Z,62.14
2023-05-01T02:21:24.452Z,62.38
2023-05-01T02:25:09.980Z,63.03
2023-05-01T02:28:52.701Z,62.96
2023-05-01T02:32:36.022Z,63.05
2023-05-01T02:36:18.740Z,63.25
2023-05-01T02:40:01.998Z,63.00
2023-05-01T02:43:47.450Z,63.29
2023-05-01T02:47:32.034Z,63.79
2023-05-01T02:51:15.040Z,63.51
2023-05-01T02:54:59.503Z,63.95
2023-05-01T02:58:42.301Z,64.17
2023-05-01T03:02:26.429Z,64.42
2023-05-01T03:06:09.552Z,64.50
2023-05-01T03:09:52.544Z,64.68
2023-05-01T03:13:35.301Z,64.53
2023-05-01T03:17:18.095Z,64.82
2023-05-01T03:21:02.151Z,64.58
2023-05-01T03:24:45.018Z,64.69
2023-05-01T03:28:27.793Z,65.12
2023-05-01T03:32:10.489Z,65.25
2023-05-01T03:36:03.559Z,65.86
2023-05-01T03:39:46.643Z,65.91
2023-05-01T03:43:29.445Z,66.68
2023-05-01T03:47:12.181Z,66.99
2023-05-01T03:51:02.155Z,66.68
2023-05-01T03:54:45.246Z,66.56
2023-05-01T03:58:28.544Z,66.28
2023-05-01T04:02:11.489Z,67.18
2023-05-01T04:05:54.250Z,66.80
2023-05-01T04:09:38.314Z,65.70
2023-05-01T04:13:21.154Z,66.61
2023-05-01T04:17:04.127Z,66.38
2023-05-01T04:20:46.878Z,66.75
2023-05-01T04:24:32.364Z,66.81
2023-05-01T04:28:16.566Z,66.93
2023-05-01T04:31:59.526Z,67.34
2023-05-01T04:35:43.026Z,67.39
2023-05-01T04:39:26.114Z,67.18
2023-05-01T04:43:08.870Z,67.26
2023-05-01T04:46:53.019Z,67.12
2023-05-01T04:50:35.809Z,66.85
2023-05-01T04:54:18.478Z,66.78
2023-05-01T04:58:02.689Z,66.37
2023-05-01T05:01:45.703Z,66.07
2023-05-01T05:05:29.942Z,66.36
2023-05-01T05:09:13.001Z,66.10
2023-05-01T05:12:55.720Z,65.17
2023-05-01T05:16:38.469Z,64.67
2023-05-01T05:20:21.195Z,64.55
2023-05-01T05:24:05.349Z,64.97
2023-05-01T05:27:47.968Z,64.63
2023-05-01T05:31:30.790Z,63.84
2023-05-01T05:35:13.574Z,61.55
2023-05-01T05:38:56.401Z,61.35
2023-05-01T05:42:40.453Z,61.44
2023-05-01T05:46:23.166Z,60.54
2023-05-01T05:50:07.343Z,60.51
2023-05-01T05:53:50.192Z,60.48
2023-05-01T05:57:34.215Z,60.07
2023-05-01T06:01:18.254Z,60.26
2023-05-01T06:05:00.981Z,59.95
2023-05-01T06:08:45.706Z,59.94
2023-05-01T06:12:29.667Z,59.64
2023-05-01T06:16:12.850Z,59.48
2023-05-01T06:19:57.187Z,58.74
2023-05-01T06:23:39.998Z,58.20
2023-05-01T06:27:22.702Z,58.02
2023-05-01T06:31:05.615Z,58.36
2023-05-01T06:34:48.339Z,58.38
2023-05-01T06:38:32.945Z,59.42
2023-05-01T06:42:16.896Z,58.96
2023-05-01T06:45:59.581Z,58.35
2023-05-01T06:49:43.577Z,58.35
2023-05-01T06:53:26.265Z,58.04
2023-05-01T06:57:10.302Z,58.12
2023-05-01T07:00:54.149Z,58.53
2023-05-01T07:04:36.949Z,58.87
2023-05-01T07:08:19.718Z,59.19
2023-05-01T07:12:02.847Z,59.39
2023-05-01T07:15:46.891Z,59.34
2023-05-01T07:19:29.576Z,59.05
2023-05-01T07:23:12.494Z,59.08
2023-05-01T07:26:56.561Z,59.04
2023-05-01T07:30:39.613Z,58.81
2023-05-01T07:34:23.623Z,58.98
2023-05-01T07:38:06.266Z,59.74
2023-05-01T07:41:48.924Z,60.08
2023-05-01T07:45:32.116Z,59.66
2023-05-01T07:49:14.837Z,59.60
2023-05-01T07:52:59.055Z,59.77
2023-05-01T07:56:41.927Z,59.25
2023-05-01T08:00:24.814Z,59.55
2023-05-01T08:04:07.900Z,59.38
2023-05-01T08:07:50.705Z,59.48
2023-05-01T08:11:34.794Z,60.15
2023-05-01T08:15:17.544Z,60.85
2023-05-01T08:19:00.179Z,61.46
2023-05-01T08:22:42.818Z,60.37
2023-05-01T08:26:25.509Z,61.27
2023-05-01T08:30:10.443Z,61.83
2023-05-01T08:33:53.129Z,62.48
2023-05-01T08:37:36.230Z,63.07
2023-05-01T08:41:22.362Z,63.10
2023-05-01T08:45:06.863Z,63.62
2023-05-01T08:48:51.728Z,64.40
2023-05-01T08:52:34.680Z,65.42
2023-05-01T08:56:18.084Z,65.77
2023-05-01T09:00:02.404Z,67.13
2023-05-01T09:03:45.513Z,68.66
2023-05-01T09:07:30.776Z,70.02
2023-05-01T09:11:13.573Z,71.59
2023-05-01T09:14:57.643Z,72.33
2023-05-01T09:18:42.658Z,72.40
2023-05-01T09:22:25.732Z,73.31
2023-05-01T09:26:09.795Z,74.44
2023-05-01T09:29:52.460Z,74.91
2023-05-01T09:33:38.233Z,76.14
2023-05-01T09:37:30.779Z,76.80
2023-05-01T09:41:15.695Z,77.49
2023-05-01T09:44:58.375Z,78.23
2023-05-01T09:48:41.177Z,78.54
2023-05-01T09:52:24.151Z,78.98
2023-05-01T09:56:07.278Z,80.14
2023-05-01T10:00:08.421Z,80.60
2023-05-01T10:03:55.294Z,80.15
2023-05-01T10:07:38.499Z,80.55
2023-05-01T10:11:22.032Z,80.94
2023-05-01T10:15:23.352Z,82.98
2023-05-01T10:19:08.310Z,82.69
2023-05-01T10:22:54.331Z,82.63
2023-05-01T10:26:37.775Z,83.16
2023-05-01T10:30:22.471Z,84.38
2023-05-01T10:34:05.554Z,86.01
2023-05-01T10:37:49.626Z,86.75
2023-05-01T10:42:04.561Z,84.62
2023-05-01T10:45:49.728Z,84.74
2023-05-01T10:50:04.467Z,86.11
2023-05-01T10:53:47.993Z,86.45
2023-05-01T10:57:43.673Z,87.91
2023-05-01T11:01:32.252Z,89.41
2023-05-01T11:05:18.473Z,91.78
2023-05-01T11:14:00.894Z,89.45
2023-05-01T11:17:56.510Z,88.38
2023-05-01T11:37:11.928Z,88.81
2023-05-01T11:41:02.868Z,92.24
2023-05-01T11:45:11.093Z,90.64
2023-05-01T11:48:53.856Z,90.04
2023-05-01T11:52:45.571Z,90.98
2023-05-01T11:56:28.470Z,89.57
2023-05-01T12:00:12.595Z,86.98
2023-05-01T12:03:55.406Z,87.58
2023-05-01T12:07:38.210Z,87.94
2023-05-01T12:11:24.171Z,82.44
2023-05-01T12:15:07.712Z,82.96
2023-05-01T12:18:50.983Z,83.05
2023-05-01T12:22:33.760Z,80.84
2023-05-01T12:26:17.803Z,78.94
2023-05-01T12:30:02.019Z,80.91
2023-05-01T12:33:55.391Z,81.18
2023-05-01T12:37:40.846Z,79.94
2023-05-01T12:41:33.611Z,77.85
2023-05-01T12:45:18.396Z,78.07
2023-05-01T12:49:01.131Z,77.65
2023-05-01T12:52:44.917Z,78.11
2023-05-01T12:56:27.805Z,75.12
2023-05-01T13:00:12.757Z,76.65
2023-05-01T13:03:58.129Z,74.95
2023-05-01T13:07:41.087Z,74.42
2023-05-01T13:11:24.232Z,74.93
2023-05-01T13:15:08.600Z,70.46
2023-05-01T13:18:53.653Z,71.30
2023-05-01T13:22:39.113Z,68.80
2023-05-01T13:26:27.627Z,68.48
2023-05-01T13:30:12.321Z,68.23
2023-05-01T13:33:56.191Z,68.27
2023-05-01T13:37:41.174Z,65.14
2023-05-01T13:41:25.817Z,66.52
2023-05-01T13:45:09.444Z,65.32
2023-05-01T13:48:52.411Z,66.50
2023-05-01T13:52:44.156Z,66.79
2023-05-01T13:56:26.894Z,67.39
2023-05-01T14:00:12.770Z,66.94
2023-05-01T14:03:57.855Z,66.57
2023-05-01T14:07:50.097Z,66.78
2023-05-01T14:11:33.244Z,67.24
2023-05-01T14:15:16.164Z,65.20
2023-05-01T14:18:59.052Z,65.69
2023-05-01T14:22:44.749Z,65.92
2023-05-01T14:26:28.850Z,66.32
2023-05-01T14:30:15.263Z,66.15
2023-05-01T14:33:59.443Z,65.89
2023-05-01T14:37:42.290Z,65.02
2023-05-01T14:41:25.568Z,64.12
2023-05-01T14:45:12.187Z,64.58
2023-05-01T14:48:54.932Z,64.02
2023-05-01T14:52:38.434Z,63.06
2023-05-01T14:56:21.248Z,63.02
2023-05-01T15:00:04.895Z,63.57
2023-05-01T15:03:49.113Z,64.09
2023-05-01T15:07:32.102Z,64.06
2023-05-01T15:11:15.215Z,63.83
2023-05-01T15:14:58.270Z,64.54
2023-05-01T15:18:41.157Z,64.16
2023-05-01T15:22:25.181Z,64.96
2023-05-01T15:26:07.915Z,64.87
2023-05-01T15:29:51.095Z,65.69
2023-05-01T15:33:33.992Z,65.87
2023-05-01T15:37:17.092Z,66.82
2023-05-01T15:41:01.139Z,67.18
2023-05-01T15:44:44.083Z,68.13
2023-05-01T15:48:26.890Z,68.30
2023-05-01T15:52:09.616Z,69.34
2023-05-01T15:55:53.370Z,69.66
2023-05-01T15:59:40.083Z,70.62
2023-05-01T16:03:22.958Z,71.43
2023-05-01T16:07:09.101Z,72.52
2023-05-01T16:10:54.933Z,73.26
2023-05-01T16:14:40.277Z,73.71
2023-05-01T16:18:25.826Z,74.61
2023-05-01T16:22:08.831Z,75.48
2023-05-01T16:25:51.548Z,76.21
2023-05-01T16:29:35.043Z,77.35
2023-05-01T16:33:20.490Z,79.17
2023-05-01T16:37:03.468Z,80.09
2023-05-01T16:40:47.121Z,81.74
2023-05-01T16:44:30.197Z,82.83
2023-05-01T16:48:13.548Z,83.73
2023-05-01T16:51:59.461Z,85.39
2023-05-01T16:55:42.924Z,86.03
2023-05-01T16:59:28.250Z,87.11
2023-05-01T17:03:11.053Z,87.98
2023-05-01T17:06:56.220Z,88.55
2023-05-01T17:10:40.914Z,88.54
2023-05-01T17:14:23.653Z,89.13
2023-05-01T17:18:07.003Z,89.57
2023-05-01T17:21:49.748Z,90.33
2023-05-01T17:25:33.173Z,90.26
2023-05-01T17:29:18.151Z,90.27
2023-05-01T17:33:01.578Z,90.50
2023-05-01T17:36:44.399Z,91.51
2023-05-01T17:40:28.259Z,91.24
2023-05-01T17:44:10.938Z,92.58
2023-05-01T17:47:55.070Z,92.43
2023-05-01T17:51:37.977Z,93.68
2023-05-01T17:55:20.789Z,94.36
2023-05-01T17:59:03.604Z,93.88
2023-05-01T18:02:47.556Z,94.60
2023-05-01T18:06:32.023Z,95.39
2023-05-01T18:10:14.745Z,95.46
2023-05-01T18:13:57.540Z,95.05
2023-05-01T18:17:40.453Z,95.45
2023-05-01T18:21:23.173Z,95.21
2023-05-01T18:25:08.496Z,96.62
2023-05-01T18:28:51.291Z,97.47
2023-05-01T18:32:46.997Z,98.65
2023-05-01T18:36:31.552Z,98.62
2023-05-01T18:40:16.468Z,99.22
2023-05-01T18:44:01.283Z,99.52
2023-05-01T18:47:44.294Z,99.38
2023-05-01T18:51:27.212Z,99.82
2023-05-01T18:55:11.265Z,100.00
2023-05-01T18:58:55.910Z,100.00
2023-05-01T19:02:39.243Z,100.00
2023-05-01T19:06:22.008Z,100.00
2023-05-01T19:10:05.020Z,100.00
2023-05-01T19:13:47.774Z,100.00
2023-05-01T19:17:32.036Z,100.00
2023-05-01T19:21:15.357Z,100.00
2023-05-01T19:24:58.059Z,99.83
2023-05-01T19:28:42.219Z,100.00
2023-05-01T19:32:25.071Z,99.94
2023-05-01T19:36:09.122Z,98.85
2023-05-01T19:39:51.797Z,99.31
2023-05-01T19:43:34.542Z,99.47
2023-05-01T19:47:17.239Z,100.00
2023-05-01T19:50:59.893Z,100.00
2023-05-01T19:54:44.916Z,99.61
2023-05-01T19:58:27.826Z,99.86
2023-05-01T20:02:10.476Z,99.99
2023-05-01T20:05:53.144Z,100.00
2023-05-01T20:09:35.884Z,100.00
2023-05-01T20:13:19.993Z,100.00
2023-05-01T20:17:02.828Z,99.98
2023-05-01T20:20:45.735Z,100.00
2023-05-01T20:24:28.407Z,100.00
2023-05-01T20:28:13.069Z,100.00
2023-05-01T20:31:57.145Z,100.00
2023-05-01T20:35:42.997Z,100.00
2023-05-01T20:39:25.649Z,100.00
2023-05-01T20:43:08.712Z,100.00
2023-05-01T20:46:51.569Z,100.00
2023-05-01T20:50:35.939Z,100.00
2023-05-01T20:54:18.607Z,100.00
2023-05-01T20:58:01.245Z,100.00
2023-05-01T21:01:43.953Z,99.77
2023-05-01T21:05:28.299Z,99.69
2023-05-01T21:09:15.072Z,99.98
2023-05-01T21:12:57.840Z,99.87
2023-05-01T21:16:40.975Z,100.00
2023-05-01T21:20:31.606Z,100.00
2023-05-01T21:24:20.496Z,100.00
2023-05-01T21:28:05.772Z,100.00
2023-05-01T21:31:49.037Z,100.00
2023-05-01T21:35:31.960Z,100.00
2023-05-01T21:39:16.253Z,100.00
2023-05-01T21:42:59.115Z,100.00
2023-05-01T21:46:42.624Z,100.00
2023-05-01T21:50:25.733Z,100.00
2023-05-01T21:54:08.616Z,100.00
2023-05-01T21:57:53.221Z,100.00
2023-05-01T22:01:35.869Z,100.00
2023-05-01T22:05:19.556Z,100.00
2023-05-01T22:09:02.360Z,100.00
2023-05-01T22:12:45.577Z,100.00
2023-05-01T22:16:29.681Z,100.00
2023-05-01T22:20:12.896Z,100.00
2023-05-01T22:23:57.586Z,100.00
2023-05-01T22:27:40.740Z,100.00
2023-05-01T22:31:23.520Z,100.00
2023-05-01T22:35:09.036Z,100.00
2023-05-01T22:38:51.795Z,100.00
2023-05-01T22:42:34.428Z,100.00
2023-05-01T22:46:18.919Z,100.00
2023-05-01T22:50:02.054Z,100.00
2023-05-01T22:53:46.614Z,100.00
2023-05-01T22:57:29.278Z,100.00
2023-05-01T23:01:11.944Z,100.00
2023-05-01T23:04:54.797Z,100.00
2023-05-01T23:08:37.854Z,100.00
2023-05-01T23:12:23.556Z,100.00
2023-05-01T23:16:12.303Z,100.00
2023-05-01T23:19:58.409Z,100.00
2023-05-01T23:23:44.039Z,100.00
2023-05-01T23:27:28.145Z,100.00
2023-05-01T23:31:19.375Z,100.00
2023-05-01T23:35:04.713Z,100.00
2023-05-01T23:38:47.390Z,100.00
2023-05-01T23:42:31.588Z,100.00
2023-05-01T23:46:14.863Z,100.00
2023-05-01T23:49:57.954Z,100.00
2023-05-01T23:53:41.430Z,100.00
2023-05-01T23:57:24.261Z,100.00
